Time;durP1;ratioP1;P1;durP2;ratioP2;P2;SDS_P1;SDS_P2;PMS_P1;PMS_P2;Temp;Humidity;BMP_temperature;BMP_pressure;BME280_temperature;BME280_humidity;BME280_pressure;Samples;Min_cycle;Max_cycle;Signal;HPM_P1;HPM_P2
2021/03/07 00:00:22;;;;;;;40.80;21.20;;;;;;;-0.09;60.38;99756.56;2093058;84;21166;-78
2021/03/07 00:03:25;;;;;;;40.57;20.40;;;;;;;-0.04;60.41;99756.87;2092638;84;21158;-78
2021/03/07 00:06:26;;;;;;;30.83;17.20;;;;;;;-0.02;60.50;99753.62;2093351;84;21269;-78
2021/03/07 00:09:27;;;;;;;45.90;22.93;;;;;;;0.00;60.53;99752.47;2093145;84;21178;-78
2021/03/07 00:12:28;;;;;;;36.70;19.00;;;;;;;0.02;60.42;99749.61;2093195;84;21189;-77
2021/03/07 00:15:29;;;;;;;32.23;16.73;;;;;;;0.06;60.48;99749.42;2093527;84;21284;-78
2021/03/07 00:18:30;;;;;;;37.07;18.60;;;;;;;0.10;60.39;99742.03;2092727;84;21179;-79
2021/03/07 00:21:31;;;;;;;37.83;19.33;;;;;;;0.13;60.38;99737.50;2093178;84;21278;-77
2021/03/07 00:24:32;;;;;;;41.73;19.13;;;;;;;0.13;60.40;99738.78;2093254;84;21150;-77
2021/03/07 00:27:33;;;;;;;45.97;19.80;;;;;;;0.14;60.22;99735.42;2093117;84;21300;-79
2021/03/07 00:30:34;;;;;;;37.77;20.57;;;;;;;0.16;60.12;99738.59;2072119;86;21290;-79
2021/03/07 00:33:35;;;;;;;42.17;18.50;;;;;;;0.18;60.14;99737.02;2072272;86;21157;-78
2021/03/07 00:36:39;;;;;;;42.57;20.27;;;;;;;0.23;60.17;99730.51;2072716;86;21439;-78
2021/03/07 00:39:40;;;;;;;37.47;19.00;;;;;;;0.27;60.13;99727.75;2072459;86;21419;-78
2021/03/07 00:42:41;;;;;;;36.50;18.47;;;;;;;0.28;60.12;99720.14;2072196;86;21156;-78
2021/03/07 00:45:42;;;;;;;48.73;22.03;;;;;;;0.30;60.12;99713.83;2072148;86;21388;-79
2021/03/07 00:48:43;;;;;;;35.47;19.07;;;;;;;0.31;60.10;99710.47;2072675;86;21197;-78
2021/03/07 00:51:44;;;;;;;42.07;17.77;;;;;;;0.34;60.27;99700.80;2072287;86;21276;-78
2021/03/07 00:54:45;;;;;;;36.43;19.00;;;;;;;0.37;60.15;99703.16;2072772;86;21205;-78
2021/03/07 00:57:48;;;;;;;36.20;20.67;;;;;;;0.38;60.11;99696.35;2072185;86;21156;-79
2021/03/07 01:00:49;;;;;;;37.50;21.03;;;;;;;0.40;60.29;99698.23;2072222;86;21554;-78
2021/03/07 01:03:57;;;;;;;37.20;20.20;;;;;;;0.40;60.16;99694.77;2072555;86;21149;-78
2021/03/07 01:06:58;;;;;;;35.30;20.30;;;;;;;0.41;60.39;99688.45;2072475;86;21153;-79
2021/03/07 01:10:00;;;;;;;47.40;23.87;;;;;;;0.40;60.38;99687.95;2072255;86;21274;-79
2021/03/07 01:13:01;;;;;;;32.07;19.60;;;;;;;0.41;60.52;99685.88;2072254;86;21299;-79
2021/03/07 01:16:03;;;;;;;39.40;21.30;;;;;;;0.45;60.48;99692.99;2072139;86;21148;-79
2021/03/07 01:19:04;;;;;;;30.40;17.30;;;;;;;0.45;60.50;99697.24;2072682;86;21417;-78
2021/03/07 01:22:05;;;;;;;29.63;17.37;;;;;;;0.45;60.62;99692.99;2072375;86;21165;-79
2021/03/07 01:25:08;;;;;;;33.77;17.17;;;;;;;0.48;60.71;99680.74;2072617;86;21259;-78
2021/03/07 01:28:09;;;;;;;30.93;19.23;;;;;;;0.47;60.98;99682.42;2076695;84;21233;-77
2021/03/07 01:31:13;;;;;;;42.93;22.10;;;;;;;0.47;60.96;99674.72;2113415;84;21283;-79
2021/03/07 01:34:14;;;;;;;39.80;20.50;;;;;;;0.49;61.14;99678.27;2113209;84;21149;-78
2021/03/07 01:37:15;;;;;;;36.23;18.00;;;;;;;0.53;61.25;99667.80;2113106;84;21279;-77
2021/03/07 01:40:16;;;;;;;45.80;22.00;;;;;;;0.53;61.01;99658.41;2112798;84;21297;-78
2021/03/07 01:43:17;;;;;;;35.20;18.47;;;;;;;0.53;61.05;99645.97;2113171;84;21272;-78
2021/03/07 01:46:19;;;;;;;32.97;16.67;;;;;;;0.53;61.04;99640.83;2113447;84;21292;-79
2021/03/07 01:49:20;;;;;;;30.43;16.30;;;;;;;0.55;61.07;99636.28;2113288;84;21264;-78
2021/03/07 01:52:21;;;;;;;30.13;13.77;;;;;;;0.55;60.97;99628.57;2113428;84;21294;-78
2021/03/07 01:55:22;;;;;;;26.50;14.87;;;;;;;0.56;60.97;99620.07;2113333;84;21423;-78
2021/03/07 01:58:23;;;;;;;24.77;13.93;;;;;;;0.56;61.06;99616.61;2113457;84;21280;-78
2021/03/07 02:01:24;;;;;;;26.27;14.80;;;;;;;0.54;61.20;99601.11;2113518;84;21275;-79
2021/03/07 02:04:25;;;;;;;18.23;11.37;;;;;;;0.55;61.24;99593.00;2113275;84;21130;-78
2021/03/07 02:07:26;;;;;;;28.43;14.63;;;;;;;0.53;61.50;99590.34;2113526;84;21275;-79
2021/03/07 02:10:27;;;;;;;22.17;13.20;;;;;;;0.53;61.50;99587.77;2113303;84;21173;-80
2021/03/07 02:13:31;;;;;;;31.73;14.17;;;;;;;0.53;61.35;99583.91;2113478;84;21307;-78
2021/03/07 02:16:32;;;;;;;22.37;12.83;;;;;;;0.53;61.51;99588.16;2113284;84;21475;-77
2021/03/07 02:19:33;;;;;;;23.03;13.53;;;;;;;0.56;61.74;99590.92;2113114;84;21308;-77
2021/03/07 02:22:34;;;;;;;26.70;14.23;;;;;;;0.58;61.69;99585.09;2113021;84;21542;-78
2021/03/07 02:25:35;;;;;;;19.70;10.90;;;;;;;0.53;61.70;99573.64;2113230;84;21271;-78
2021/03/07 02:28:38;;;;;;;22.30;11.33;;;;;;;0.53;62.04;99573.64;2109737;84;21316;-78
2021/03/07 02:31:39;;;;;;;21.63;12.07;;;;;;;0.56;62.01;99572.55;2093540;84;21293;-80
2021/03/07 02:34:43;;;;;;;24.13;12.90;;;;;;;0.56;61.98;99570.38;2092800;84;21328;-77
2021/03/07 02:37:44;;;;;;;20.93;10.83;;;;;;;0.55;61.95;99570.77;2092889;84;21289;-78
2021/03/07 02:40:47;;;;;;;25.37;13.37;;;;;;;0.54;62.05;99564.25;2092906;84;21153;-78
2021/03/07 02:43:49;;;;;;;19.63;11.07;;;;;;;0.56;61.88;99566.13;2093017;84;21178;-78
2021/03/07 02:46:50;;;;;;;24.57;11.73;;;;;;;0.57;61.88;99555.05;2093470;84;21269;-79
2021/03/07 02:49:51;;;;;;;22.23;13.27;;;;;;;0.59;62.05;99562.85;2093681;84;21166;-78
2021/03/07 02:52:58;;;;;;;22.13;11.17;;;;;;;0.58;61.83;99553.38;2093476;84;21150;-77
2021/03/07 02:55:59;;;;;;;23.13;12.27;;;;;;;0.61;61.84;99550.99;2092986;85;21327;-77
2021/03/07 02:59:01;;;;;;;21.50;11.80;;;;;;;0.65;61.85;99545.25;2092987;85;21169;-78
2021/03/07 03:02:02;;;;;;;21.33;11.43;;;;;;;0.70;61.75;99535.25;2093086;84;21134;-78
2021/03/07 03:05:03;;;;;;;22.77;12.53;;;;;;;0.72;61.83;99535.84;2092852;84;21276;-78
2021/03/07 03:08:04;;;;;;;19.50;10.87;;;;;;;0.73;61.80;99536.72;2093287;85;21158;-78
2021/03/07 03:11:11;;;;;;;20.93;11.70;;;;;;;0.74;61.81;99534.65;2093239;84;21575;-78
2021/03/07 03:14:12;;;;;;;21.10;11.57;;;;;;;0.78;61.72;99531.47;2093102;84;21202;-78
2021/03/07 03:17:13;;;;;;;23.30;12.47;;;;;;;0.79;61.80;99531.96;2093080;84;21463;-77
2021/03/07 03:20:14;;;;;;;22.17;11.47;;;;;;;0.77;61.73;99524.16;2092766;84;21687;-78
2021/03/07 03:23:15;;;;;;;18.87;10.77;;;;;;;0.80;61.79;99532.45;2092646;84;21289;-78
2021/03/07 03:26:16;;;;;;;17.00;10.17;;;;;;;0.81;61.76;99521.37;2093146;84;21158;-78
2021/03/07 03:29:17;;;;;;;21.13;12.20;;;;;;;0.80;61.87;99514.06;2099303;83;21585;-78
2021/03/07 03:32:18;;;;;;;20.43;11.60;;;;;;;0.77;62.07;99510.02;2113625;84;21154;-78
2021/03/07 03:35:19;;;;;;;22.50;11.17;;;;;;;0.76;62.14;99510.81;2113184;84;21434;-78
2021/03/07 03:38:21;;;;;;;16.40;10.27;;;;;;;0.74;62.16;99502.52;2113553;84;21271;-77
2021/03/07 03:41:24;;;;;;;16.30;9.13;;;;;;;0.75;62.27;99504.30;2113263;84;21129;-78
2021/03/07 03:44:25;;;;;;;14.30;8.77;;;;;;;0.76;62.32;99506.08;2113776;84;21129;-77
2021/03/07 03:47:26;;;;;;;30.77;11.83;;;;;;;0.77;62.48;99497.57;2113243;84;21287;-78
2021/03/07 03:50:27;;;;;;;28.00;12.80;;;;;;;0.80;62.48;99493.91;2113023;84;21566;-76
2021/03/07 03:53:28;;;;;;;21.10;9.93;;;;;;;0.81;62.50;99494.39;2113119;84;21315;-77
2021/03/07 03:56:30;;;;;;;27.53;12.27;;;;;;;0.83;62.43;99485.09;2113319;84;21153;-77
2021/03/07 03:59:31;;;;;;;15.57;9.13;;;;;;;0.87;62.40;99485.80;2113548;84;21173;-78
2021/03/07 04:02:32;;;;;;;19.43;8.90;;;;;;;0.87;62.50;99481.55;2113249;84;21153;-77
2021/03/07 04:05:33;;;;;;;25.80;11.37;;;;;;;0.87;62.56;99484.52;2113194;84;21562;-79
2021/03/07 04:08:34;;;;;;;21.50;9.73;;;;;;;0.86;62.39;99483.98;2113093;84;21157;-77
2021/03/07 04:11:35;;;;;;;16.63;8.77;;;;;;;0.88;62.52;99479.86;2113225;84;21287;-77
2021/03/07 04:14:36;;;;;;;18.53;10.40;;;;;;;0.87;62.51;99471.27;2113127;84;21320;-77
2021/03/07 04:17:37;;;;;;;15.73;7.97;;;;;;;0.87;62.43;99468.69;2113107;84;21292;-78
2021/03/07 04:20:38;;;;;;;13.00;8.00;;;;;;;0.89;62.41;99470.07;2113388;84;21292;-78
2021/03/07 04:23:41;;;;;;;14.90;8.50;;;;;;;0.89;62.46;99461.07;2113096;84;21284;-78
2021/03/07 04:26:42;;;;;;;14.63;8.63;;;;;;;0.90;62.44;99466.70;2112992;84;21165;-78
2021/03/07 04:29:44;;;;;;;18.50;9.80;;;;;;;0.91;62.41;99471.05;2112857;84;21296;-78
2021/03/07 04:32:45;;;;;;;18.53;9.40;;;;;;;0.93;62.24;99464.31;2113208;84;21307;-77
2021/03/07 04:35:46;;;;;;;16.03;8.80;;;;;;;0.93;62.31;99466.89;2112073;84;21145;-78
2021/03/07 04:38:47;;;;;;;14.30;9.47;;;;;;;0.94;62.20;99466.09;2112302;84;21546;-78
2021/03/07 04:41:48;;;;;;;14.60;8.40;;;;;;;0.95;61.99;99469.15;2112373;84;21312;-77
2021/03/07 04:44:49;;;;;;;21.80;10.27;;;;;;;0.97;61.96;99466.27;2112313;84;21129;-77
2021/03/07 04:47:50;;;;;;;31.53;10.60;;;;;;;0.97;61.98;99473.98;2112486;84;21256;-77
2021/03/07 04:50:51;;;;;;;19.33;11.73;;;;;;;0.98;61.94;99469.73;2113625;84;21432;-78
2021/03/07 04:53:55;;;;;;;15.70;9.50;;;;;;;0.97;61.89;99470.13;2113422;84;21304;-78
2021/03/07 04:56:56;;;;;;;15.88;10.20;;;;;;;0.97;61.91;99463.70;2113410;84;21268;-78
2021/03/07 05:00:00;;;;;;;29.20;11.20;;;;;;;0.94;62.00;99457.09;2112984;84;21157;-76
2021/03/07 05:03:01;;;;;;;31.43;12.87;;;;;;;0.93;62.02;99463.03;2113183;84;21471;-76
2021/03/07 05:06:02;;;;;;;24.77;11.90;;;;;;;0.91;62.01;99460.77;2112680;84;21644;-77
2021/03/07 05:09:03;;;;;;;15.07;9.17;;;;;;;0.91;62.16;99460.77;2112991;84;21169;-79
2021/03/07 05:12:04;;;;;;;19.90;11.50;;;;;;;0.90;62.05;99455.14;2113945;84;21169;-79
2021/03/07 05:15:05;;;;;;;13.80;9.30;;;;;;;0.91;61.99;99454.34;2113205;84;21317;-79
2021/03/07 05:18:06;;;;;;;18.07;9.07;;;;;;;0.94;61.85;99446.81;2113586;84;21308;-79
2021/03/07 05:21:11;;;;;;;23.53;12.20;;;;;;;0.96;61.75;99447.78;2113476;84;21275;-78
2021/03/07 05:24:12;;;;;;;;;;;;;;;0.95;61.77;99448.19;2115714;84;21279;-79
2021/03/07 05:27:13;;;;;;;14.47;9.17;;;;;;;0.99;61.63;99445.80;2113722;84;20187;-78
2021/03/07 05:30:14;;;;;;;23.53;9.87;;;;;;;0.99;61.67;99445.39;2094869;84;21319;-79
2021/03/07 05:33:18;;;;;;;13.20;8.87;;;;;;;1.02;61.74;99436.58;2072534;86;21318;-77
2021/03/07 05:36:19;;;;;;;18.67;10.53;;;;;;;1.05;61.61;99434.59;2072501;86;21291;-79
2021/03/07 05:39:20;;;;;;;18.07;8.80;;;;;;;1.04;61.50;99436.66;2072563;86;21145;-78
2021/03/07 05:42:21;;;;;;;20.87;10.93;;;;;;;1.04;61.53;99435.38;2072438;86;21284;-78
2021/03/07 05:45:22;;;;;;;19.10;9.67;;;;;;;1.05;61.46;99432.90;2072507;86;21140;-80
2021/03/07 05:48:26;;;;;;;17.80;9.73;;;;;;;1.12;61.50;99435.42;2072288;86;21113;-79
2021/03/07 05:51:27;;;;;;;21.37;11.88;;;;;;;1.16;61.29;99430.55;2072024;86;21291;-79
2021/03/07 05:54:28;;;;;;;19.50;10.40;;;;;;;1.19;61.34;99425.59;2071659;86;21193;-77
2021/03/07 05:57:30;;;;;;;16.40;10.43;;;;;;;1.21;61.14;99423.98;2072300;86;21439;-78
2021/03/07 06:00:32;;;;;;;25.70;11.00;;;;;;;1.24;60.99;99428.02;2071974;86;21258;-78
2021/03/07 06:03:33;;;;;;;29.77;11.70;;;;;;;1.26;60.93;99416.53;2071760;86;21565;-78
2021/03/07 06:06:34;;;;;;;18.63;9.63;;;;;;;1.29;60.83;99415.42;2071801;86;21276;-79
2021/03/07 06:09:35;;;;;;;25.63;13.33;;;;;;;1.33;60.52;99424.20;2071642;86;21136;-79
2021/03/07 06:12:36;;;;;;;14.10;9.43;;;;;;;1.34;60.63;99421.72;2071822;86;21277;-79
2021/03/07 06:15:37;;;;;;;20.17;10.97;;;;;;;1.34;60.52;99417.86;2072403;86;21176;-78
2021/03/07 06:18:38;;;;;;;16.70;10.13;;;;;;;1.38;60.60;99413.38;2072196;86;21277;-78
2021/03/07 06:21:39;;;;;;;16.50;9.80;;;;;;;1.43;60.21;99412.35;2072382;86;21144;-78
2021/03/07 06:24:40;;;;;;;27.60;12.53;;;;;;;1.45;60.27;99407.78;2072252;86;21153;-78
2021/03/07 06:27:41;;;;;;;23.90;12.93;;;;;;;1.49;60.36;99406.27;2072119;86;21272;-78
2021/03/07 06:30:42;;;;;;;20.73;11.40;;;;;;;1.55;60.18;99405.32;2072230;85;21176;-79
2021/03/07 06:33:44;;;;;;;18.13;9.90;;;;;;;1.58;59.73;99399.95;2071953;86;21585;-78
2021/03/07 06:36:45;;;;;;;21.20;10.00;;;;;;;1.62;59.64;99401.41;2072251;86;21283;-79
2021/03/07 06:39:50;;;;;;;17.27;9.33;;;;;;;1.70;59.55;99393.70;2072797;86;21279;-79
2021/03/07 06:42:51;;;;;;;17.40;10.13;;;;;;;1.76;59.30;99389.81;2072181;86;21136;-79
2021/03/07 06:45:52;;;;;;;15.50;9.27;;;;;;;1.81;59.12;99393.53;2072117;86;21279;-79
2021/03/07 06:48:53;;;;;;;22.03;10.93;;;;;;;1.90;59.08;99393.14;2071724;86;21465;-78
2021/03/07 06:52:00;;;;;;;19.50;9.60;;;;;;;1.91;58.84;99389.36;2072271;86;21164;-78
2021/03/07 06:54:58;;;;;;;23.27;11.20;;;;;;;1.94;58.67;99382.20;2071525;86;21314;-77
2021/03/07 06:57:59;;;;;;;12.87;9.50;;;;;;;1.98;58.77;99383.26;2072323;86;21164;-78
2021/03/07 07:01:00;;;;;;;16.67;9.00;;;;;;;2.05;58.45;99377.63;2072278;86;21165;-79
2021/03/07 07:04:03;;;;;;;17.43;9.70;;;;;;;2.12;58.25;99382.31;2072054;86;21288;-78
2021/03/07 07:07:04;;;;;;;15.20;9.27;;;;;;;2.19;58.26;99388.27;2072470;86;21259;-79
2021/03/07 07:10:05;;;;;;;10.70;8.37;;;;;;;2.23;57.70;99370.88;2072117;86;21304;-78
2021/03/07 07:13:06;;;;;;;53.67;10.70;;;;;;;2.27;57.65;99370.24;2072010;86;21589;-78
2021/03/07 07:16:09;;;;;;;16.63;9.37;;;;;;;2.36;57.90;99365.97;2071874;86;21820;-78
2021/03/07 07:19:10;;;;;;;24.30;10.40;;;;;;;2.42;57.41;99356.87;2072228;86;21262;-78
2021/03/07 07:22:12;;;;;;;18.03;8.47;;;;;;;2.47;57.50;99356.70;2072150;86;21291;-78
2021/03/07 07:25:13;;;;;;;11.10;8.40;;;;;;;2.47;56.89;99361.86;2072041;86;21165;-78
2021/03/07 07:28:14;;;;;;;16.17;11.30;;;;;;;2.46;56.80;99361.37;2071635;86;21574;-77
2021/03/07 07:31:15;;;;;;;17.47;8.40;;;;;;;2.49;57.26;99353.80;2072106;85;21497;-77
2021/03/07 07:34:16;;;;;;;17.60;10.67;;;;;;;2.54;56.99;99344.62;2072071;86;21188;-77
2021/03/07 07:37:20;;;;;;;12.87;9.00;;;;;;;2.56;56.90;99349.44;2072041;86;21419;-79
2021/03/07 07:40:21;;;;;;;18.37;10.90;;;;;;;2.53;56.57;99340.67;2071987;86;21456;-78
2021/03/07 07:43:22;;;;;;;21.03;12.17;;;;;;;2.59;57.00;99338.81;2072294;86;21157;-77
2021/03/07 07:46:23;;;;;;;23.73;12.90;;;;;;;2.63;57.02;99334.33;2072385;86;21450;-79
2021/03/07 07:49:24;;;;;;;27.37;12.53;;;;;;;2.72;56.48;99340.83;2071858;86;21538;-78
2021/03/07 07:52:25;;;;;;;23.53;13.20;;;;;;;2.70;56.29;99332.54;2072166;86;21237;-79
2021/03/07 07:55:27;;;;;;;26.47;14.93;;;;;;;2.69;56.23;99330.36;2071798;86;21308;-78
2021/03/07 07:58:28;;;;;;;21.17;13.00;;;;;;;2.69;56.01;99329.48;2071461;86;21172;-78
2021/03/07 08:01:29;;;;;;;26.40;12.97;;;;;;;2.77;56.51;99318.74;2071859;86;21122;-78
2021/03/07 08:04:32;;;;;;;29.00;14.70;;;;;;;2.82;56.38;99318.97;2071917;86;21136;-78
2021/03/07 08:07:33;;;;;;;21.10;13.53;;;;;;;2.93;56.33;99317.80;2072022;86;21287;-78
2021/03/07 08:10:35;;;;;;;24.37;14.23;;;;;;;3.03;56.28;99313.98;2071980;86;21279;-80
2021/03/07 08:13:36;;;;;;;30.57;15.03;;;;;;;3.05;55.14;99308.50;2072131;86;21188;-77
2021/03/07 08:16:40;;;;;;;25.80;14.97;;;;;;;3.04;55.48;99295.13;2072151;86;21447;-79
2021/03/07 08:19:41;;;;;;;20.97;11.83;;;;;;;3.17;55.84;99294.90;2072455;86;21161;-78
2021/03/07 08:22:45;;;;;;;18.53;13.33;;;;;;;3.31;54.98;99295.55;2072099;86;21612;-78
2021/03/07 08:25:46;;;;;;;18.77;11.77;;;;;;;3.38;54.99;99289.88;2071935;86;21639;-77
2021/03/07 08:28:50;;;;;;;16.17;11.50;;;;;;;3.52;55.00;99294.02;2072159;86;21192;-80
2021/03/07 08:31:51;;;;;;;24.47;13.17;;;;;;;3.58;54.11;99285.67;2101856;84;21471;-80
2021/03/07 08:34:56;;;;;;;23.67;13.63;;;;;;;3.64;54.54;99281.67;2112891;84;21311;-79
2021/03/07 08:37:57;;;;;;;22.80;11.53;;;;;;;3.69;54.29;99284.47;2112953;84;21291;-79
2021/03/07 08:40:58;;;;;;;18.30;12.80;;;;;;;3.79;53.57;99279.79;2113491;84;21423;-78
2021/03/07 08:43:59;;;;;;;21.33;11.17;;;;;;;3.86;53.44;99277.48;2113355;84;21129;-78
2021/03/07 08:47:00;;;;;;;20.40;12.43;;;;;;;3.92;53.30;99264.44;2113128;84;21288;-79
2021/03/07 08:50:01;;;;;;;22.93;12.47;;;;;;;3.90;52.77;99263.48;2113121;84;21137;-78
2021/03/07 08:53:02;;;;;;;22.30;13.07;;;;;;;3.94;53.24;99270.55;2112634;84;21450;-77
2021/03/07 08:56:03;;;;;;;19.70;11.80;;;;;;;3.91;52.29;99265.25;2112619;84;21284;-77
2021/03/07 08:59:04;;;;;;;50.07;15.63;;;;;;;3.91;52.55;99269.13;2112411;84;21138;-78
2021/03/07 09:02:05;;;;;;;26.17;13.27;;;;;;;3.97;52.99;99256.48;2113128;84;21292;-78
2021/03/07 09:05:06;;;;;;;24.10;14.30;;;;;;;4.03;52.92;99264.91;2112975;84;21565;-78
2021/03/07 09:08:08;;;;;;;15.03;10.73;;;;;;;4.05;52.73;99265.86;2113218;84;21275;-78
2021/03/07 09:11:12;;;;;;;20.93;13.07;;;;;;;4.12;52.74;99256.27;2113498;84;21292;-80
2021/03/07 09:14:13;;;;;;;24.67;12.85;;;;;;;4.20;52.42;99252.32;2113351;84;21173;-79
2021/03/07 09:17:17;;;;;;;23.23;13.47;;;;;;;4.18;51.65;99253.07;2113298;84;21110;-79
2021/03/07 09:20:19;;;;;;;31.00;14.40;;;;;;;4.11;51.87;99255.39;2113547;84;21326;-77
2021/03/07 09:23:22;;;;;;;19.07;12.70;;;;;;;4.03;52.05;99244.25;2113215;84;21141;-79
2021/03/07 09:26:24;;;;;;;20.77;12.70;;;;;;;4.03;52.23;99243.84;2113242;84;21268;-77
2021/03/07 09:29:25;;;;;;;24.47;15.27;;;;;;;4.01;52.10;99231.27;2113093;84;21558;-78
2021/03/07 09:32:29;;;;;;;23.10;15.30;;;;;;;4.03;52.77;99241.66;2096581;84;21320;-77
2021/03/07 09:35:31;;;;;;;22.02;16.02;;;;;;;4.05;52.74;99235.75;2093311;84;21174;-79
2021/03/07 09:38:34;;;;;;;32.90;17.83;;;;;;;4.11;52.75;99236.02;2093348;84;21421;-78
2021/03/07 09:41:35;;;;;;;29.97;18.07;;;;;;;4.10;52.90;99222.63;2093171;85;21281;-77
2021/03/07 09:44:36;;;;;;;22.67;13.37;;;;;;;4.20;52.69;99226.89;2093507;84;21443;-78
2021/03/07 09:47:37;;;;;;;36.87;16.93;;;;;;;4.15;51.87;99217.65;2093003;84;21404;-80
2021/03/07 09:50:41;;;;;;;24.07;14.47;;;;;;;4.09;52.48;99222.55;2093308;84;21167;-78
2021/03/07 09:53:42;;;;;;;28.27;12.77;;;;;;;4.07;52.07;99228.06;2093131;84;21296;-79
2021/03/07 09:56:43;;;;;;;24.30;14.57;;;;;;;4.15;52.40;99223.70;2092894;84;21296;-77
2021/03/07 09:59:44;;;;;;;23.93;14.17;;;;;;;4.24;52.42;99221.92;2092972;84;21304;-80
2021/03/07 10:02:45;;;;;;;22.67;13.37;;;;;;;4.28;51.95;99222.52;2093167;84;21126;-78
2021/03/07 10:05:49;;;;;;;20.83;14.03;;;;;;;4.26;51.98;99218.11;2092946;84;21158;-79
2021/03/07 10:08:50;;;;;;;27.80;12.97;;;;;;;4.27;52.26;99216.87;2093545;84;21285;-78
2021/03/07 10:11:51;;;;;;;19.27;13.03;;;;;;;4.25;52.01;99216.34;2093295;84;21165;-78
2021/03/07 10:14:56;;;;;;;19.17;13.50;;;;;;;4.27;51.83;99225.05;2093322;84;21319;-77
2021/03/07 10:17:57;;;;;;;30.82;13.28;;;;;;;4.25;52.07;99217.22;2093058;85;21268;-77
2021/03/07 10:21:01;;;;;;;23.53;14.20;;;;;;;4.23;51.86;99210.22;2093048;84;21158;-78
2021/03/07 10:24:02;;;;;;;23.25;14.83;;;;;;;4.21;52.09;99214.45;2093084;84;21281;-77
2021/03/07 10:27:03;;;;;;;26.87;12.73;;;;;;;4.21;52.09;99214.45;2092975;84;21154;-77
2021/03/07 10:30:04;;;;;;;24.33;13.87;;;;;;;4.15;52.44;99210.78;2092948;84;21130;-77
2021/03/07 10:33:05;;;;;;;23.53;14.17;;;;;;;4.19;52.22;99209.63;2092984;84;21601;-77
2021/03/07 10:36:06;;;;;;;16.33;11.37;;;;;;;4.19;52.32;99205.34;2092932;84;21404;-78
2021/03/07 10:39:07;;;;;;;25.27;13.23;;;;;;;4.19;51.90;99191.13;2092892;85;21170;-77
2021/03/07 10:42:08;;;;;;;23.87;13.20;;;;;;;4.25;52.40;99198.25;2093146;84;21158;-78
2021/03/07 10:45:12;;;;;;;27.80;15.30;;;;;;;4.30;52.12;99188.58;2092999;84;21268;-77
2021/03/07 10:48:13;;;;;;;31.43;16.77;;;;;;;4.39;51.72;99182.95;2092917;85;21541;-77
2021/03/07 10:51:17;;;;;;;21.37;12.87;;;;;;;4.46;52.10;99163.88;2093190;85;21264;-78
2021/03/07 10:54:18;;;;;;;27.47;16.90;;;;;;;4.37;51.24;99176.83;2092926;84;21316;-77
2021/03/07 10:57:19;;;;;;;27.97;15.63;;;;;;;4.38;51.60;99167.84;2092857;84;21531;-78
2021/03/07 11:00:20;;;;;;;22.80;11.63;;;;;;;4.38;51.47;99174.31;2092887;84;21578;-77
2021/03/07 11:03:23;;;;;;;19.27;12.17;;;;;;;4.28;51.43;99173.42;2093096;85;21304;-77
2021/03/07 11:06:24;;;;;;;16.10;11.40;;;;;;;4.24;51.90;99165.48;2092886;84;21141;-78
2021/03/07 11:09:28;;;;;;;19.37;13.60;;;;;;;4.22;51.71;99165.42;2093007;84;21146;-77
2021/03/07 11:12:29;;;;;;;18.77;11.80;;;;;;;4.23;51.88;99161.13;2092965;85;21162;-77
2021/03/07 11:15:33;;;;;;;15.90;10.70;;;;;;;4.25;51.82;99157.79;2092902;84;21292;-78
2021/03/07 11:18:34;;;;;;;24.98;12.65;;;;;;;4.21;51.15;99163.66;2093466;84;21281;-77
2021/03/07 11:21:35;;;;;;;23.10;10.27;;;;;;;4.13;51.11;99159.86;2093057;84;21257;-77
2021/03/07 11:24:36;;;;;;;16.20;9.70;;;;;;;4.12;50.97;99157.69;2093249;84;21139;-78
2021/03/07 11:27:37;;;;;;;23.40;12.67;;;;;;;4.06;51.13;99147.51;2092911;84;21170;-78
2021/03/07 11:30:38;;;;;;;21.17;12.10;;;;;;;4.03;51.30;99132.77;2092117;84;21192;-78
2021/03/07 11:33:39;;;;;;;19.93;10.83;;;;;;;4.01;51.36;99147.31;2072327;86;21192;-77
2021/03/07 11:36:40;;;;;;;23.73;14.23;;;;;;;3.95;51.38;99143.18;2071959;86;21117;-78
2021/03/07 11:39:41;;;;;;;25.23;14.30;;;;;;;3.95;51.79;99135.43;2072158;86;21530;-77
2021/03/07 11:42:42;;;;;;;27.07;12.37;;;;;;;3.91;51.50;99127.08;2072160;86;21391;-79
2021/03/07 11:45:46;;;;;;;30.70;14.57;;;;;;;3.86;51.72;99135.45;2071959;86;21283;-79
2021/03/07 11:48:47;;;;;;;30.37;14.93;;;;;;;3.84;51.81;99137.97;2072123;86;21267;-79
2021/03/07 11:51:51;;;;;;;31.33;14.77;;;;;;;3.84;51.89;99126.34;2072089;86;21484;-78
2021/03/07 11:54:52;;;;;;;23.23;13.47;;;;;;;3.87;51.39;99120.43;2072388;86;21204;-78
2021/03/07 11:57:56;;;;;;;21.33;13.93;;;;;;;3.82;51.43;99118.53;2072187;86;21781;-78
2021/03/07 12:00:57;;;;;;;22.93;14.27;;;;;;;3.83;51.81;99115.55;2072230;86;21189;-79
2021/03/07 12:04:00;;;;;;;23.47;13.17;;;;;;;3.92;51.87;99103.02;2072124;86;21145;-78
2021/03/07 12:07:01;;;;;;;22.23;13.33;;;;;;;3.90;51.65;99110.23;2072550;86;21157;-78
2021/03/07 12:10:02;;;;;;;24.83;15.13;;;;;;;3.91;51.82;99104.25;2072138;86;21141;-79
2021/03/07 12:13:03;;;;;;;25.43;15.53;;;;;;;3.98;51.93;99096.81;2072374;86;21156;-78
2021/03/07 12:16:06;;;;;;;26.33;13.10;;;;;;;3.95;51.33;99106.14;2072488;86;21125;-78
2021/03/07 12:19:08;;;;;;;16.65;11.30;;;;;;;3.92;51.07;99103.02;2072760;86;21173;-79
2021/03/07 12:22:12;;;;;;;21.90;13.30;;;;;;;3.89;51.63;99086.52;2072437;86;21161;-79
2021/03/07 12:25:13;;;;;;;22.57;16.57;;;;;;;3.95;51.70;99072.56;2072715;86;21165;-77
2021/03/07 12:28:14;;;;;;;22.70;14.93;;;;;;;3.99;52.09;99070.58;2073466;84;21164;-78
2021/03/07 12:31:15;;;;;;;23.00;15.57;;;;;;;4.05;52.43;99068.25;2079867;84;21208;-78
2021/03/07 12:34:16;;;;;;;37.87;14.77;;;;;;;4.12;52.15;99062.09;2113479;84;21316;-77
2021/03/07 12:37:17;;;;;;;26.93;15.43;;;;;;;4.14;51.54;99067.33;2113396;84;21275;-79
2021/03/07 12:40:20;;;;;;;25.80;15.87;;;;;;;4.13;51.57;99054.82;2113400;84;21478;-78
2021/03/07 12:43:21;;;;;;;23.87;16.60;;;;;;;4.18;51.82;99052.42;2113509;84;21152;-78
2021/03/07 12:46:25;;;;;;;18.57;13.33;;;;;;;4.24;51.55;99047.50;2113196;84;21570;-77
2021/03/07 12:49:26;;;;;;;23.53;15.23;;;;;;;4.22;51.14;99048.26;2113343;84;21294;-79
2021/03/07 12:52:30;;;;;;;37.23;14.33;;;;;;;4.19;51.11;99046.44;2113788;84;21161;-78
2021/03/07 12:55:31;;;;;;;25.05;14.63;;;;;;;4.10;50.85;99046.95;2113341;84;21447;-78
2021/03/07 12:58:32;;;;;;;22.07;14.37;;;;;;;4.09;51.05;99029.69;2113369;84;21268;-78
2021/03/07 13:01:33;;;;;;;24.73;13.27;;;;;;;4.04;50.91;99036.78;2113394;84;21280;-79
2021/03/07 13:04:34;;;;;;;20.37;14.23;;;;;;;4.04;50.79;99050.98;2113413;84;21283;-79
2021/03/07 13:07:35;;;;;;;23.63;14.53;;;;;;;4.02;51.04;99038.42;2113227;84;21173;-78
2021/03/07 13:10:36;;;;;;;24.30;15.43;;;;;;;4.03;50.96;99031.14;2113483;84;21137;-80
2021/03/07 13:13:37;;;;;;;27.37;17.37;;;;;;;3.98;50.60;99041.28;2113483;84;21331;-78
2021/03/07 13:16:54;;;;;;;31.57;19.20;;;;;;;3.92;50.78;99034.98;2113047;84;21547;-78
2021/03/07 13:19:55;;;;;;;22.57;15.67;;;;;;;3.95;51.41;99025.66;2113166;84;21126;-78
2021/03/07 13:22:58;;;;;;;21.23;16.43;;;;;;;3.96;50.85;99023.97;2113271;84;21152;-77
2021/03/07 13:25:59;;;;;;;25.50;17.03;;;;;;;3.94;51.27;99024.31;2113025;84;21447;-78
2021/03/07 13:29:00;;;;;;;20.10;14.50;;;;;;;3.98;51.42;99022.33;2113341;84;21274;-78
2021/03/07 13:32:02;;;;;;;19.37;13.73;;;;;;;3.98;50.69;99034.83;2099259;84;21192;-79
2021/03/07 13:35:06;;;;;;;25.10;14.97;;;;;;;3.91;50.78;99016.03;2072166;86;21357;-78
2021/03/07 13:38:07;;;;;;;27.73;17.77;;;;;;;3.90;50.92;99019.84;2072141;86;21287;-80
2021/03/07 13:41:10;;;;;;;23.17;15.17;;;;;;;3.95;51.24;99014.45;2072194;86;21558;-79
2021/03/07 13:44:11;;;;;;;22.00;16.10;;;;;;;3.96;51.25;99011.05;2072475;86;21447;-78
2021/03/07 13:47:15;;;;;;;24.20;14.03;;;;;;;4.06;51.56;99009.30;2072296;86;21166;-78
2021/03/07 13:50:19;;;;;;;19.90;13.63;;;;;;;4.11;51.28;99004.80;2072147;86;21133;-77
2021/03/07 13:53:22;;;;;;;26.43;16.20;;;;;;;4.04;51.81;98995.04;2072384;86;21176;-78
2021/03/07 13:56:23;;;;;;;30.10;16.93;;;;;;;4.04;51.81;98995.04;2072038;86;21144;-77
2021/03/07 13:59:24;;;;;;;21.00;14.50;;;;;;;4.05;51.38;98986.87;2072026;86;21283;-78
2021/03/07 14:02:26;;;;;;;19.40;14.80;;;;;;;4.08;51.66;98993.05;2072246;86;21173;-77
2021/03/07 14:05:30;;;;;;;22.17;15.17;;;;;;;4.12;51.16;98974.27;2072212;86;21153;-77